sensor_id;sensor_type;location;lat;lon;timestamp;P1;durP1;ratioP1;P2;durP2;ratioP2
83646;SDS011;73609;50.134;14.376;2024-02-15T00:00:05;19.2;;;10.5;;
83646;SDS011;73609;50.134;14.376;2024-02-15T00:02:05;16.8;;;9.4;;
83646;SDS011;73609;50.134;14.376;2024-02-15T00:04:05;16.5;;;9.0;;
83646;SDS011;73609;50.134;14.376;2024-02-15T00:06:05;13.4;;;8.7;;
83646;SDS011;73609;50.134;14.376;2024-02-15T00:08:05;15.8;;;8.8;;
83646;SDS011;73609;50.134;14.376;2024-02-15T00:10:05;14.5;;;8.4;;
83646;SDS011;73609;50.134;14.376;2024-02-15T00:12:05;14.0;;;8.4;;
83646;SDS011;73609;50.134;14.376;2024-02-15T00:14:05;12.4;;;7.7;;
83646;SDS011;73609;50.134;14.376;2024-02-15T00:16:05;14.5;;;8.0;;
83646;SDS011;73609;50.134;14.376;2024-02-15T00:18:05;10.8;;;7.1;;
83646;SDS011;73609;50.134;14.376;2024-02-15T00:20:05;10.1;;;6.2;;
83646;SDS011;73609;50.134;14.376;2024-02-15T00:22:06;11.5;;;6.5;;
83646;SDS011;73609;50.134;14.376;2024-02-15T00:24:05;11.9;;;6.6;;
83646;SDS011;73609;50.134;14.376;2024-02-15T00:26:05;10.4;;;6.0;;
83646;SDS011;73609;50.134;14.376;2024-02-15T00:28:05;11.0;;;6.5;;
83646;SDS011;73609;50.134;14.376;2024-02-15T00:30:05;12.9;;;6.5;;
83646;SDS011;73609;50.134;14.376;2024-02-15T00:32:05;9.7;;;6.2;;
83646;SDS011;73609;50.134;14.376;2024-02-15T00:34:05;10.2;;;6.2;;
83646;SDS011;73609;50.134;14.376;2024-02-15T00:36:05;11.9;;;6.5;;
83646;SDS011;73609;50.134;14.376;2024-02-15T00:38:05;11.0;;;6.5;;
83646;SDS011;73609;50.134;14.376;2024-02-15T00:40:05;11.3;;;6.1;;
83646;SDS011;73609;50.134;14.376;2024-02-15T00:42:05;9.9;;;6.2;;
83646;SDS011;73609;50.134;14.376;2024-02-15T00:44:05;10.6;;;6.2;;
83646;SDS011;73609;50.134;14.376;2024-02-15T00:46:05;10.1;;;6.4;;
83646;SDS011;73609;50.134;14.376;2024-02-15T00:48:05;8.7;;;6.1;;
83646;SDS011;73609;50.134;14.376;2024-02-15T00:50:05;9.1;;;5.6;;
83646;SDS011;73609;50.134;14.376;2024-02-15T00:52:05;10.2;;;5.6;;
83646;SDS011;73609;50.134;14.376;2024-02-15T00:54:05;8.7;;;5.3;;
83646;SDS011;73609;50.134;14.376;2024-02-15T00:56:05;8.0;;;5.3;;
83646;SDS011;73609;50.134;14.376;2024-02-15T00:58:05;9.7;;;5.7;;
83646;SDS011;73609;50.134;14.376;2024-02-15T01:00:05;9.3;;;6.1;;
83646;SDS011;73609;50.134;14.376;2024-02-15T01:06:05;10.3;;;6.2;;
83646;SDS011;73609;50.134;14.376;2024-02-15T01:08:05;10.8;;;6.3;;
83646;SDS011;73609;50.134;14.376;2024-02-15T01:10:05;10.7;;;6.8;;
83646;SDS011;73609;50.134;14.376;2024-02-15T01:12:05;10.9;;;6.5;;
83646;SDS011;73609;50.134;14.376;2024-02-15T01:14:05;10.1;;;6.6;;
83646;SDS011;73609;50.134;14.376;2024-02-15T01:16:05;10.3;;;6.2;;
83646;SDS011;73609;50.134;14.376;2024-02-15T01:18:05;10.1;;;6.5;;
83646;SDS011;73609;50.134;14.376;2024-02-15T01:20:05;11.0;;;6.4;;
83646;SDS011;73609;50.134;14.376;2024-02-15T01:22:05;10.4;;;6.0;;
83646;SDS011;73609;50.134;14.376;2024-02-15T01:24:05;11.5;;;6.5;;
83646;SDS011;73609;50.134;14.376;2024-02-15T01:26:05;9.1;;;6.4;;
83646;SDS011;73609;50.134;14.376;2024-02-15T01:28:05;11.1;;;6.2;;
83646;SDS011;73609;50.134;14.376;2024-02-15T01:30:05;10.5;;;5.9;;
83646;SDS011;73609;50.134;14.376;2024-02-15T01:32:05;13.1;;;6.2;;
83646;SDS011;73609;50.134;14.376;2024-02-15T01:34:05;10.3;;;6.4;;
83646;SDS011;73609;50.134;14.376;2024-02-15T01:36:05;11.8;;;6.0;;
83646;SDS011;73609;50.134;14.376;2024-02-15T01:38:05;8.4;;;5.6;;
83646;SDS011;73609;50.134;14.376;2024-02-15T01:40:05;10.6;;;5.8;;
83646;SDS011;73609;50.134;14.376;2024-02-15T01:42:05;9.2;;;5.8;;
83646;SDS011;73609;50.134;14.376;2024-02-15T01:44:05;9.0;;;5.9;;
83646;SDS011;73609;50.134;14.376;2024-02-15T01:46:07;10.1;;;6.0;;
83646;SDS011;73609;50.134;14.376;2024-02-15T01:48:05;9.2;;;5.4;;
83646;SDS011;73609;50.134;14.376;2024-02-15T01:50:05;9.8;;;5.7;;
83646;SDS011;73609;50.134;14.376;2024-02-15T01:52:05;9.3;;;5.9;;
83646;SDS011;73609;50.134;14.376;2024-02-15T01:54:05;8.8;;;6.0;;
83646;SDS011;73609;50.134;14.376;2024-02-15T01:56:05;10.8;;;5.9;;
83646;SDS011;73609;50.134;14.376;2024-02-15T01:58:05;8.9;;;5.5;;
83646;SDS011;73609;50.134;14.376;2024-02-15T02:00:06;8.8;;;5.8;;
83646;SDS011;73609;50.134;14.376;2024-02-15T02:02:05;11.3;;;5.7;;
83646;SDS011;73609;50.134;14.376;2024-02-15T02:04:05;9.4;;;5.6;;
83646;SDS011;73609;50.134;14.376;2024-02-15T02:06:05;8.9;;;5.6;;
83646;SDS011;73609;50.134;14.376;2024-02-15T02:08:05;9.4;;;5.8;;
83646;SDS011;73609;50.134;14.376;2024-02-15T02:10:07;9.2;;;5.6;;
83646;SDS011;73609;50.134;14.376;2024-02-15T02:12:05;9.6;;;5.8;;
83646;SDS011;73609;50.134;14.376;2024-02-15T02:14:05;11.4;;;6.0;;
83646;SDS011;73609;50.134;14.376;2024-02-15T02:16:23;8.2;;;5.8;;
83646;SDS011;73609;50.134;14.376;2024-02-15T02:18:05;7.3;;;5.5;;
83646;SDS011;73609;50.134;14.376;2024-02-15T02:20:05;10.8;;;5.7;;
83646;SDS011;73609;50.134;14.376;2024-02-15T02:22:05;9.4;;;5.5;;
83646;SDS011;73609;50.134;14.376;2024-02-15T02:24:09;9.7;;;5.7;;
83646;SDS011;73609;50.134;14.376;2024-02-15T02:26:05;9.0;;;5.4;;
83646;SDS011;73609;50.134;14.376;2024-02-15T02:28:05;8.0;;;5.4;;
83646;SDS011;73609;50.134;14.376;2024-02-15T02:30:11;8.5;;;5.6;;
83646;SDS011;73609;50.134;14.376;2024-02-15T02:32:05;8.9;;;5.4;;
83646;SDS011;73609;50.134;14.376;2024-02-15T02:34:05;8.9;;;5.6;;
83646;SDS011;73609;50.134;14.376;2024-02-15T02:36:05;9.3;;;6.1;;
83646;SDS011;73609;50.134;14.376;2024-02-15T02:38:05;8.9;;;5.5;;
83646;SDS011;73609;50.134;14.376;2024-02-15T02:40:05;8.9;;;5.3;;
83646;SDS011;73609;50.134;14.376;2024-02-15T02:42:05;9.2;;;6.2;;
83646;SDS011;73609;50.134;14.376;2024-02-15T02:44:05;10.1;;;6.1;;
83646;SDS011;73609;50.134;14.376;2024-02-15T02:46:10;8.5;;;5.9;;
83646;SDS011;73609;50.134;14.376;2024-02-15T02:48:05;10.9;;;6.2;;
83646;SDS011;73609;50.134;14.376;2024-02-15T02:50:05;10.9;;;6.7;;
83646;SDS011;73609;50.134;14.376;2024-02-15T02:52:05;8.9;;;6.0;;
83646;SDS011;73609;50.134;14.376;2024-02-15T02:54:05;10.7;;;6.7;;
83646;SDS011;73609;50.134;14.376;2024-02-15T02:56:05;8.8;;;6.1;;
83646;SDS011;73609;50.134;14.376;2024-02-15T02:58:05;7.7;;;5.8;;
83646;SDS011;73609;50.134;14.376;2024-02-15T03:00:06;10.4;;;6.0;;
83646;SDS011;73609;50.134;14.376;2024-02-15T03:02:05;10.7;;;5.9;;
83646;SDS011;73609;50.134;14.376;2024-02-15T03:04:05;9.4;;;6.1;;
83646;SDS011;73609;50.134;14.376;2024-02-15T03:06:05;9.5;;;6.0;;
83646;SDS011;73609;50.134;14.376;2024-02-15T03:08:05;9.8;;;5.9;;
83646;SDS011;73609;50.134;14.376;2024-02-15T03:10:05;9.9;;;6.0;;
83646;SDS011;73609;50.134;14.376;2024-02-15T03:12:05;9.5;;;5.9;;
83646;SDS011;73609;50.134;14.376;2024-02-15T03:14:05;9.3;;;5.9;;
83646;SDS011;73609;50.134;14.376;2024-02-15T03:16:05;11.1;;;6.7;;
83646;SDS011;73609;50.134;14.376;2024-02-15T03:18:05;8.7;;;6.4;;
83646;SDS011;73609;50.134;14.376;2024-02-15T03:20:05;10.1;;;6.2;;
83646;SDS011;73609;50.134;14.376;2024-02-15T03:22:05;10.4;;;6.6;;
83646;SDS011;73609;50.134;14.376;2024-02-15T03:24:05;10.0;;;6.6;;
83646;SDS011;73609;50.134;14.376;2024-02-15T03:26:07;9.9;;;6.6;;
83646;SDS011;73609;50.134;14.376;2024-02-15T03:28:05;10.4;;;6.6;;
83646;SDS011;73609;50.134;14.376;2024-02-15T03:30:05;12.0;;;7.0;;
83646;SDS011;73609;50.134;14.376;2024-02-15T03:32:05;10.5;;;7.0;;
83646;SDS011;73609;50.134;14.376;2024-02-15T03:34:05;13.4;;;7.7;;
83646;SDS011;73609;50.134;14.376;2024-02-15T03:36:05;11.1;;;7.1;;
83646;SDS011;73609;50.134;14.376;2024-02-15T03:38:05;10.7;;;6.4;;
83646;SDS011;73609;50.134;14.376;2024-02-15T03:40:05;9.5;;;6.7;;
83646;SDS011;73609;50.134;14.376;2024-02-15T03:42:05;8.4;;;6.2;;
83646;SDS011;73609;50.134;14.376;2024-02-15T03:44:05;9.6;;;6.7;;
83646;SDS011;73609;50.134;14.376;2024-02-15T03:46:05;10.6;;;6.5;;
83646;SDS011;73609;50.134;14.376;2024-02-15T03:48:05;8.3;;;6.4;;
83646;SDS011;73609;50.134;14.376;2024-02-15T03:50:05;11.0;;;6.3;;
83646;SDS011;73609;50.134;14.376;2024-02-15T03:52:05;10.4;;;6.5;;
83646;SDS011;73609;50.134;14.376;2024-02-15T03:54:05;8.3;;;6.3;;
83646;SDS011;73609;50.134;14.376;2024-02-15T03:56:05;10.9;;;6.7;;
83646;SDS011;73609;50.134;14.376;2024-02-15T03:58:05;10.1;;;6.9;;
83646;SDS011;73609;50.134;14.376;2024-02-15T04:00:05;9.7;;;6.3;;
83646;SDS011;73609;50.134;14.376;2024-02-15T04:02:05;9.9;;;6.4;;
83646;SDS011;73609;50.134;14.376;2024-02-15T04:04:05;11.2;;;6.8;;
83646;SDS011;73609;50.134;14.376;2024-02-15T04:06:05;9.6;;;6.4;;
83646;SDS011;73609;50.134;14.376;2024-02-15T04:08:05;9.9;;;6.2;;
83646;SDS011;73609;50.134;14.376;2024-02-15T04:10:05;10.4;;;6.7;;
83646;SDS011;73609;50.134;14.376;2024-02-15T04:12:05;8.0;;;5.9;;
83646;SDS011;73609;50.134;14.376;2024-02-15T04:14:05;11.9;;;6.5;;
83646;SDS011;73609;50.134;14.376;2024-02-15T04:16:05;9.3;;;6.0;;
83646;SDS011;73609;50.134;14.376;2024-02-15T04:18:05;9.7;;;6.4;;
83646;SDS011;73609;50.134;14.376;2024-02-15T04:20:05;8.0;;;5.8;;
83646;SDS011;73609;50.134;14.376;2024-02-15T04:22:05;9.2;;;6.3;;
83646;SDS011;73609;50.134;14.376;2024-02-15T04:24:05;10.5;;;6.4;;
83646;SDS011;73609;50.134;14.376;2024-02-15T04:26:05;10.5;;;6.3;;
83646;SDS011;73609;50.134;14.376;2024-02-15T04:28:05;11.0;;;6.9;;
83646;SDS011;73609;50.134;14.376;2024-02-15T04:30:05;10.0;;;6.8;;
83646;SDS011;73609;50.134;14.376;2024-02-15T04:32:05;11.3;;;7.4;;
83646;SDS011;73609;50.134;14.376;2024-02-15T04:34:05;12.9;;;7.5;;
83646;SDS011;73609;50.134;14.376;2024-02-15T04:36:05;12.2;;;7.2;;
83646;SDS011;73609;50.134;14.376;2024-02-15T04:38:05;11.1;;;7.0;;
83646;SDS011;73609;50.134;14.376;2024-02-15T04:40:05;11.3;;;6.9;;
83646;SDS011;73609;50.134;14.376;2024-02-15T04:42:05;9.5;;;6.7;;
83646;SDS011;73609;50.134;14.376;2024-02-15T04:44:05;10.6;;;7.0;;
83646;SDS011;73609;50.134;14.376;2024-02-15T04:46:07;10.6;;;6.8;;
83646;SDS011;73609;50.134;14.376;2024-02-15T04:48:05;9.8;;;6.5;;
83646;SDS011;73609;50.134;14.376;2024-02-15T04:50:06;13.2;;;6.6;;
83646;SDS011;73609;50.134;14.376;2024-02-15T04:52:05;10.7;;;6.2;;
83646;SDS011;73609;50.134;14.376;2024-02-15T04:54:05;10.5;;;6.3;;
83646;SDS011;73609;50.134;14.376;2024-02-15T04:56:05;9.6;;;6.6;;
83646;SDS011;73609;50.134;14.376;2024-02-15T04:58:05;10.7;;;7.3;;
83646;SDS011;73609;50.134;14.376;2024-02-15T05:00:05;11.4;;;7.6;;
83646;SDS011;73609;50.134;14.376;2024-02-15T05:02:05;9.9;;;7.0;;
83646;SDS011;73609;50.134;14.376;2024-02-15T05:04:05;10.4;;;7.0;;
83646;SDS011;73609;50.134;14.376;2024-02-15T05:06:05;10.5;;;7.4;;
83646;SDS011;73609;50.134;14.376;2024-02-15T05:08:05;11.1;;;7.5;;
83646;SDS011;73609;50.134;14.376;2024-02-15T05:10:05;10.6;;;6.9;;
83646;SDS011;73609;50.134;14.376;2024-02-15T05:12:05;10.6;;;6.4;;
83646;SDS011;73609;50.134;14.376;2024-02-15T05:14:05;8.4;;;6.0;;
83646;SDS011;73609;50.134;14.376;2024-02-15T05:16:05;9.4;;;6.2;;
83646;SDS011;73609;50.134;14.376;2024-02-15T05:18:05;10.2;;;6.7;;
83646;SDS011;73609;50.134;14.376;2024-02-15T05:20:05;11.1;;;6.8;;
83646;SDS011;73609;50.134;14.376;2024-02-15T05:22:05;12.4;;;6.7;;
83646;SDS011;73609;50.134;14.376;2024-02-15T05:24:05;10.5;;;6.6;;
83646;SDS011;73609;50.134;14.376;2024-02-15T05:26:05;11.9;;;7.0;;
83646;SDS011;73609;50.134;14.376;2024-02-15T05:28:05;11.9;;;6.5;;
83646;SDS011;73609;50.134;14.376;2024-02-15T05:30:05;9.2;;;5.9;;
83646;SDS011;73609;50.134;14.376;2024-02-15T05:32:05;11.0;;;6.5;;
83646;SDS011;73609;50.134;14.376;2024-02-15T05:34:06;10.9;;;7.1;;
83646;SDS011;73609;50.134;14.376;2024-02-15T05:36:05;12.6;;;6.9;;
83646;SDS011;73609;50.134;14.376;2024-02-15T05:38:05;11.3;;;7.0;;
83646;SDS011;73609;50.134;14.376;2024-02-15T05:40:05;9.3;;;6.4;;
83646;SDS011;73609;50.134;14.376;2024-02-15T05:42:05;10.2;;;6.1;;
83646;SDS011;73609;50.134;14.376;2024-02-15T05:44:05;8.5;;;6.4;;
83646;SDS011;73609;50.134;14.376;2024-02-15T05:46:05;9.5;;;5.9;;
83646;SDS011;73609;50.134;14.376;2024-02-15T05:48:05;10.1;;;6.6;;
83646;SDS011;73609;50.134;14.376;2024-02-15T05:50:05;11.2;;;6.6;;
83646;SDS011;73609;50.134;14.376;2024-02-15T05:52:05;10.2;;;6.3;;
83646;SDS011;73609;50.134;14.376;2024-02-15T05:54:05;9.4;;;6.2;;
83646;SDS011;73609;50.134;14.376;2024-02-15T05:56:05;8.3;;;6.2;;
83646;SDS011;73609;50.134;14.376;2024-02-15T05:58:05;7.7;;;5.7;;
83646;SDS011;73609;50.134;14.376;2024-02-15T06:00:05;8.7;;;6.1;;
83646;SDS011;73609;50.134;14.376;2024-02-15T06:02:05;9.1;;;6.4;;
83646;SDS011;73609;50.134;14.376;2024-02-15T06:04:05;9.3;;;6.6;;
83646;SDS011;73609;50.134;14.376;2024-02-15T06:06:05;8.8;;;6.4;;
83646;SDS011;73609;50.134;14.376;2024-02-15T06:08:05;8.9;;;6.1;;
83646;SDS011;73609;50.134;14.376;2024-02-15T06:10:05;9.7;;;6.7;;
83646;SDS011;73609;50.134;14.376;2024-02-15T06:12:05;8.1;;;6.0;;
83646;SDS011;73609;50.134;14.376;2024-02-15T06:14:05;7.9;;;6.3;;
83646;SDS011;73609;50.134;14.376;2024-02-15T06:16:05;9.0;;;6.0;;
83646;SDS011;73609;50.134;14.376;2024-02-15T06:18:05;9.4;;;6.1;;
83646;SDS011;73609;50.134;14.376;2024-02-15T06:20:05;9.6;;;6.2;;
83646;SDS011;73609;50.134;14.376;2024-02-15T06:22:06;8.6;;;6.3;;
83646;SDS011;73609;50.134;14.376;2024-02-15T06:24:05;9.1;;;6.6;;
83646;SDS011;73609;50.134;14.376;2024-02-15T06:26:05;8.0;;;6.4;;
83646;SDS011;73609;50.134;14.376;2024-02-15T06:28:05;8.5;;;6.3;;
83646;SDS011;73609;50.134;14.376;2024-02-15T06:30:06;8.4;;;6.4;;
83646;SDS011;73609;50.134;14.376;2024-02-15T06:32:05;9.9;;;6.4;;
83646;SDS011;73609;50.134;14.376;2024-02-15T06:34:05;7.7;;;5.9;;
83646;SDS011;73609;50.134;14.376;2024-02-15T06:36:05;8.2;;;6.5;;
83646;SDS011;73609;50.134;14.376;2024-02-15T06:38:05;10.0;;;6.8;;
83646;SDS011;73609;50.134;14.376;2024-02-15T06:40:05;10.7;;;6.8;;
83646;SDS011;73609;50.134;14.376;2024-02-15T06:42:05;9.7;;;6.8;;
83646;SDS011;73609;50.134;14.376;2024-02-15T06:44:05;9.9;;;7.0;;
83646;SDS011;73609;50.134;14.376;2024-02-15T06:46:06;8.7;;;6.4;;
83646;SDS011;73609;50.134;14.376;2024-02-15T06:48:05;9.3;;;6.8;;
83646;SDS011;73609;50.134;14.376;2024-02-15T06:50:05;8.6;;;6.7;;
83646;SDS011;73609;50.134;14.376;2024-02-15T06:52:06;10.2;;;6.9;;
83646;SDS011;73609;50.134;14.376;2024-02-15T06:54:05;9.6;;;7.1;;
83646;SDS011;73609;50.134;14.376;2024-02-15T06:56:05;9.3;;;7.1;;
83646;SDS011;73609;50.134;14.376;2024-02-15T06:58:05;10.2;;;7.1;;
83646;SDS011;73609;50.134;14.376;2024-02-15T07:00:05;8.8;;;6.7;;
83646;SDS011;73609;50.134;14.376;2024-02-15T07:02:05;9.0;;;7.0;;
83646;SDS011;73609;50.134;14.376;2024-02-15T07:04:05;8.9;;;6.5;;
83646;SDS011;73609;50.134;14.376;2024-02-15T07:06:05;8.1;;;6.4;;
83646;SDS011;73609;50.134;14.376;2024-02-15T07:08:05;8.4;;;6.6;;
83646;SDS011;73609;50.134;14.376;2024-02-15T07:10:05;7.9;;;6.3;;
83646;SDS011;73609;50.134;14.376;2024-02-15T07:12:05;7.5;;;6.5;;
83646;SDS011;73609;50.134;14.376;2024-02-15T07:14:05;9.2;;;6.7;;
83646;SDS011;73609;50.134;14.376;2024-02-15T07:16:07;9.1;;;6.4;;
83646;SDS011;73609;50.134;14.376;2024-02-15T07:18:05;10.0;;;6.7;;
83646;SDS011;73609;50.134;14.376;2024-02-15T07:20:05;9.1;;;7.2;;
83646;SDS011;73609;50.134;14.376;2024-02-15T07:22:05;9.0;;;6.4;;
83646;SDS011;73609;50.134;14.376;2024-02-15T07:24:05;10.1;;;6.7;;
83646;SDS011;73609;50.134;14.376;2024-02-15T07:26:05;10.1;;;7.0;;
83646;SDS011;73609;50.134;14.376;2024-02-15T07:28:05;8.9;;;6.6;;
83646;SDS011;73609;50.134;14.376;2024-02-15T07:30:05;9.4;;;7.2;;
83646;SDS011;73609;50.134;14.376;2024-02-15T07:32:05;8.5;;;6.9;;
83646;SDS011;73609;50.134;14.376;2024-02-15T07:34:05;8.5;;;6.8;;
83646;SDS011;73609;50.134;14.376;2024-02-15T07:36:05;9.5;;;7.0;;
83646;SDS011;73609;50.134;14.376;2024-02-15T07:38:05;8.4;;;6.8;;
83646;SDS011;73609;50.134;14.376;2024-02-15T07:40:05;9.1;;;6.6;;
83646;SDS011;73609;50.134;14.376;2024-02-15T07:42:05;8.6;;;6.8;;
83646;SDS011;73609;50.134;14.376;2024-02-15T07:44:05;8.4;;;6.4;;
83646;SDS011;73609;50.134;14.376;2024-02-15T07:46:05;8.9;;;6.8;;
83646;SDS011;73609;50.134;14.376;2024-02-15T07:48:05;8.5;;;6.8;;
83646;SDS011;73609;50.134;14.376;2024-02-15T07:50:05;7.9;;;6.7;;
83646;SDS011;73609;50.134;14.376;2024-02-15T07:52:05;8.9;;;7.1;;
83646;SDS011;73609;50.134;14.376;2024-02-15T07:54:05;9.4;;;7.0;;
83646;SDS011;73609;50.134;14.376;2024-02-15T07:56:05;8.3;;;6.9;;
83646;SDS011;73609;50.134;14.376;2024-02-15T07:58:05;8.9;;;6.8;;
83646;SDS011;73609;50.134;14.376;2024-02-15T08:00:05;9.6;;;6.2;;
83646;SDS011;73609;50.134;14.376;2024-02-15T08:02:05;8.9;;;6.3;;
83646;SDS011;73609;50.134;14.376;2024-02-15T08:04:05;8.5;;;6.5;;
83646;SDS011;73609;50.134;14.376;2024-02-15T08:06:05;9.5;;;6.5;;
83646;SDS011;73609;50.134;14.376;2024-02-15T08:08:05;8.8;;;6.1;;
83646;SDS011;73609;50.134;14.376;2024-02-15T08:10:05;8.2;;;5.8;;
83646;SDS011;73609;50.134;14.376;2024-02-15T08:12:05;8.6;;;5.7;;
83646;SDS011;73609;50.134;14.376;2024-02-15T08:14:05;7.5;;;5.3;;
83646;SDS011;73609;50.134;14.376;2024-02-15T08:16:05;7.1;;;5.8;;
83646;SDS011;73609;50.134;14.376;2024-02-15T08:18:05;8.4;;;5.6;;
83646;SDS011;73609;50.134;14.376;2024-02-15T08:20:06;7.6;;;5.2;;
83646;SDS011;73609;50.134;14.376;2024-02-15T08:22:05;7.7;;;5.5;;
83646;SDS011;73609;50.134;14.376;2024-02-15T08:24:05;6.8;;;5.4;;
83646;SDS011;73609;50.134;14.376;2024-02-15T08:26:05;8.9;;;5.3;;
83646;SDS011;73609;50.134;14.376;2024-02-15T08:28:05;6.3;;;4.9;;
83646;SDS011;73609;50.134;14.376;2024-02-15T08:30:05;6.2;;;4.9;;
83646;SDS011;73609;50.134;14.376;2024-02-15T08:32:05;7.4;;;5.4;;
83646;SDS011;73609;50.134;14.376;2024-02-15T08:34:05;8.0;;;4.9;;
83646;SDS011;73609;50.134;14.376;2024-02-15T08:36:05;6.4;;;5.0;;
83646;SDS011;73609;50.134;14.376;2024-02-15T08:38:06;6.5;;;4.8;;
83646;SDS011;73609;50.134;14.376;2024-02-15T08:40:05;6.7;;;5.1;;
83646;SDS011;73609;50.134;14.376;2024-02-15T08:42:05;6.7;;;4.8;;
83646;SDS011;73609;50.134;14.376;2024-02-15T08:44:05;6.3;;;4.6;;
83646;SDS011;73609;50.134;14.376;2024-02-15T08:46:05;6.5;;;4.3;;
83646;SDS011;73609;50.134;14.376;2024-02-15T08:48:05;5.7;;;4.6;;
83646;SDS011;73609;50.134;14.376;2024-02-15T08:50:05;4.3;;;3.8;;
83646;SDS011;73609;50.134;14.376;2024-02-15T08:52:05;5.8;;;4.4;;
83646;SDS011;73609;50.134;14.376;2024-02-15T08:54:05;5.2;;;3.9;;
83646;SDS011;73609;50.134;14.376;2024-02-15T08:56:05;4.4;;;3.8;;
83646;SDS011;73609;50.134;14.376;2024-02-15T08:58:05;5.4;;;3.9;;
83646;SDS011;73609;50.134;14.376;2024-02-15T09:00:05;5.4;;;3.9;;
83646;SDS011;73609;50.134;14.376;2024-02-15T09:02:05;5.1;;;4.1;;
83646;SDS011;73609;50.134;14.376;2024-02-15T09:04:05;4.8;;;3.7;;
83646;SDS011;73609;50.134;14.376;2024-02-15T09:06:05;5.1;;;4.0;;
83646;SDS011;73609;50.134;14.376;2024-02-15T09:08:05;5.6;;;4.1;;
83646;SDS011;73609;50.134;14.376;2024-02-15T09:10:05;5.8;;;4.2;;
83646;SDS011;73609;50.134;14.376;2024-02-15T09:12:05;5.4;;;4.0;;
83646;SDS011;73609;50.134;14.376;2024-02-15T09:14:05;5.5;;;3.9;;
83646;SDS011;73609;50.134;14.376;2024-02-15T09:16:05;5.2;;;3.6;;
83646;SDS011;73609;50.134;14.376;2024-02-15T09:18:05;5.7;;;3.8;;
83646;SDS011;73609;50.134;14.376;2024-02-15T09:22:05;5.3;;;4.0;;
83646;SDS011;73609;50.134;14.376;2024-02-15T09:24:05;4.7;;;4.0;;
83646;SDS011;73609;50.134;14.376;2024-02-15T09:26:05;6.2;;;4.5;;
83646;SDS011;73609;50.134;14.376;2024-02-15T09:28:05;5.6;;;4.0;;
83646;SDS011;73609;50.134;14.376;2024-02-15T09:30:05;5.6;;;4.2;;
83646;SDS011;73609;50.134;14.376;2024-02-15T09:32:05;6.1;;;4.2;;
83646;SDS011;73609;50.134;14.376;2024-02-15T09:34:05;5.3;;;4.3;;
83646;SDS011;73609;50.134;14.376;2024-02-15T09:36:05;6.2;;;4.2;;
83646;SDS011;73609;50.134;14.376;2024-02-15T09:38:05;5.1;;;4.1;;
83646;SDS011;73609;50.134;14.376;2024-02-15T09:40:09;4.9;;;3.8;;
83646;SDS011;73609;50.134;14.376;2024-02-15T09:42:05;5.2;;;3.6;;
83646;SDS011;73609;50.134;14.376;2024-02-15T09:44:05;4.0;;;3.3;;
83646;SDS011;73609;50.134;14.376;2024-02-15T09:46:07;4.1;;;3.5;;
83646;SDS011;73609;50.134;14.376;2024-02-15T09:48:05;4.8;;;3.6;;
83646;SDS011;73609;50.134;14.376;2024-02-15T09:50:06;4.9;;;3.8;;
83646;SDS011;73609;50.134;14.376;2024-02-15T09:52:06;4.8;;;4.0;;
83646;SDS011;73609;50.134;14.376;2024-02-15T09:54:05;4.7;;;3.8;;
83646;SDS011;73609;50.134;14.376;2024-02-15T09:56:05;5.8;;;4.2;;
83646;SDS011;73609;50.134;14.376;2024-02-15T09:58:05;5.2;;;4.5;;
83646;SDS011;73609;50.134;14.376;2024-02-15T10:00:05;5.5;;;4.8;;
83646;SDS011;73609;50.134;14.376;2024-02-15T10:02:05;4.6;;;3.9;;
83646;SDS011;73609;50.134;14.376;2024-02-15T10:04:05;6.4;;;4.6;;
83646;SDS011;73609;50.134;14.376;2024-02-15T10:06:05;4.6;;;3.9;;
83646;SDS011;73609;50.134;14.376;2024-02-15T10:08:05;6.1;;;4.4;;
83646;SDS011;73609;50.134;14.376;2024-02-15T10:10:30;6.3;;;4.2;;
83646;SDS011;73609;50.134;14.376;2024-02-15T10:12:05;4.1;;;3.3;;
83646;SDS011;73609;50.134;14.376;2024-02-15T10:14:10;4.0;;;3.4;;
83646;SDS011;73609;50.134;14.376;2024-02-15T10:16:13;3.9;;;3.1;;
83646;SDS011;73609;50.134;14.376;2024-02-15T10:18:06;3.5;;;2.9;;
83646;SDS011;73609;50.134;14.376;2024-02-15T10:20:05;3.9;;;2.8;;
83646;SDS011;73609;50.134;14.376;2024-02-15T10:22:06;3.7;;;2.5;;
83646;SDS011;73609;50.134;14.376;2024-02-15T10:24:06;3.3;;;2.3;;
83646;SDS011;73609;50.134;14.376;2024-02-15T10:26:20;3.3;;;2.3;;
83646;SDS011;73609;50.134;14.376;2024-02-15T10:28:05;3.4;;;2.4;;
83646;SDS011;73609;50.134;14.376;2024-02-15T10:30:21;2.6;;;2.0;;
83646;SDS011;73609;50.134;14.376;2024-02-15T10:32:05;2.5;;;1.7;;
83646;SDS011;73609;50.134;14.376;2024-02-15T10:34:05;2.5;;;1.6;;
83646;SDS011;73609;50.134;14.376;2024-02-15T10:36:06;2.0;;;1.5;;
83646;SDS011;73609;50.134;14.376;2024-02-15T10:38:06;2.5;;;1.6;;
83646;SDS011;73609;50.134;14.376;2024-02-15T10:40:05;2.5;;;1.8;;
83646;SDS011;73609;50.134;14.376;2024-02-15T10:42:06;2.4;;;1.7;;
83646;SDS011;73609;50.134;14.376;2024-02-15T10:44:05;2.6;;;1.7;;
83646;SDS011;73609;50.134;14.376;2024-02-15T10:46:05;3.1;;;1.9;;
83646;SDS011;73609;50.134;14.376;2024-02-15T10:48:06;3.1;;;2.0;;
83646;SDS011;73609;50.134;14.376;2024-02-15T10:50:06;2.8;;;2.0;;
83646;SDS011;73609;50.134;14.376;2024-02-15T10:52:05;3.0;;;1.9;;
83646;SDS011;73609;50.134;14.376;2024-02-15T10:54:05;2.6;;;1.9;;
83646;SDS011;73609;50.134;14.376;2024-02-15T10:56:08;2.5;;;1.7;;
83646;SDS011;73609;50.134;14.376;2024-02-15T10:58:05;2.2;;;1.6;;
83646;SDS011;73609;50.134;14.376;2024-02-15T11:00:05;2.5;;;1.7;;
83646;SDS011;73609;50.134;14.376;2024-02-15T11:02:14;3.8;;;1.3;;
83646;SDS011;73609;50.134;14.376;2024-02-15T11:04:07;2.5;;;1.2;;
83646;SDS011;73609;50.134;14.376;2024-02-15T11:06:05;2.1;;;1.3;;
83646;SDS011;73609;50.134;14.376;2024-02-15T11:08:05;2.7;;;1.4;;
83646;SDS011;73609;50.134;14.376;2024-02-15T11:10:06;2.1;;;1.3;;
83646;SDS011;73609;50.134;14.376;2024-02-15T11:12:05;2.2;;;1.4;;
83646;SDS011;73609;50.134;14.376;2024-02-15T11:16:05;2.0;;;1.5;;
83646;SDS011;73609;50.134;14.376;2024-02-15T11:18:05;2.8;;;1.6;;
83646;SDS011;73609;50.134;14.376;2024-02-15T11:20:05;3.1;;;2.0;;
83646;SDS011;73609;50.134;14.376;2024-02-15T11:22:14;2.7;;;1.6;;
83646;SDS011;73609;50.134;14.376;2024-02-15T11:26:08;3.0;;;1.9;;
83646;SDS011;73609;50.134;14.376;2024-02-15T11:30:05;2.6;;;1.5;;
83646;SDS011;73609;50.134;14.376;2024-02-15T11:32:05;6.3;;;4.3;;
83646;SDS011;73609;50.134;14.376;2024-02-15T11:36:06;4.4;;;2.7;;
83646;SDS011;73609;50.134;14.376;2024-02-15T11:38:05;2.1;;;1.3;;
83646;SDS011;73609;50.134;14.376;2024-02-15T11:40:05;3.0;;;1.4;;
83646;SDS011;73609;50.134;14.376;2024-02-15T11:44:05;2.1;;;1.2;;
83646;SDS011;73609;50.134;14.376;2024-02-15T11:46:05;2.3;;;1.4;;
83646;SDS011;73609;50.134;14.376;2024-02-15T11:48:07;3.3;;;1.6;;
83646;SDS011;73609;50.134;14.376;2024-02-15T11:50:07;2.6;;;1.3;;
83646;SDS011;73609;50.134;14.376;2024-02-15T11:52:09;2.1;;;1.2;;
83646;SDS011;73609;50.134;14.376;2024-02-15T11:54:07;2.1;;;1.2;;
83646;SDS011;73609;50.134;14.376;2024-02-15T11:56:05;2.3;;;1.3;;
83646;SDS011;73609;50.134;14.376;2024-02-15T11:58:05;2.6;;;1.2;;
83646;SDS011;73609;50.134;14.376;2024-02-15T12:00:05;2.4;;;1.2;;
83646;SDS011;73609;50.134;14.376;2024-02-15T12:02:05;2.1;;;1.2;;
83646;SDS011;73609;50.134;14.376;2024-02-15T12:04:05;2.3;;;1.3;;
83646;SDS011;73609;50.134;14.376;2024-02-15T12:06:05;3.1;;;1.6;;
83646;SDS011;73609;50.134;14.376;2024-02-15T12:08:05;2.0;;;1.2;;
83646;SDS011;73609;50.134;14.376;2024-02-15T12:10:05;3.0;;;1.9;;
83646;SDS011;73609;50.134;14.376;2024-02-15T12:12:05;2.8;;;1.6;;
83646;SDS011;73609;50.134;14.376;2024-02-15T12:14:05;2.4;;;1.1;;
83646;SDS011;73609;50.134;14.376;2024-02-15T12:16:05;2.2;;;1.2;;
83646;SDS011;73609;50.134;14.376;2024-02-15T12:18:20;2.4;;;1.5;;
83646;SDS011;73609;50.134;14.376;2024-02-15T12:20:05;2.7;;;1.4;;
83646;SDS011;73609;50.134;14.376;2024-02-15T12:22:05;2.5;;;1.2;;
83646;SDS011;73609;50.134;14.376;2024-02-15T12:24:05;2.0;;;1.2;;
83646;SDS011;73609;50.134;14.376;2024-02-15T12:26:05;2.8;;;1.3;;